Kanaskat, Washington
Current Conditions -  °F | °C
As of 9:53 AM on Saturday 25 Oct 2014 (Local Time) from KRNT Reporting Station
Broken Clouds Broken Clouds  
Wind Chill: 54°   Ceiling: 9000
Heat Index: 54°   Visibility: 10mi
Dew Point: 51°   Wind: 3mph
Humidity: 90%   Direction: NA
Pressure: 29.49"   Gusts: NA
Location:  47.3777°N, 121.913°W
Report Text: KRNT 251653Z VRB03KT 10SM BKN090 BKN110 12/11 A2949 RMK AO2 RAE24 SLP990 P0000 T01220106
Loading
Personal Weather Stations






























Interactive Weather Map New forecast layout! Learn more

10-Day Weather Forecast

Advertisements
Track Severe Weather on mobile